Runway excursion Serious incident Boeing 737-8AS (WL) RA-73252, 10 Jan 2023
ASN logo
ASN Wikibase Occurrence # 305715
 
This information is added by users of ASN. Neither ASN nor the Flight Safety Foundation are responsible for the completeness or correctness of this information. If you feel this information is incomplete or incorrect, you can submit corrected information.

Date:10-JAN-2023
Time:09:00
Type:Silhouette image of generic B738 model; specific model in this crash may look slightly different    
Boeing 737-8AS (WL)
Owner/operator:NordStar
Registration: RA-73252
MSN: 33561/1463
Fatalities:Fatalities: 0 / Occupants: 122
Other fatalities:0
Aircraft damage: None
Category:Serious incident
Location:Noril'sk Airport (NSK/UOOO) -   Russia
Phase: Taxi
Nature:Passenger - Scheduled
Departure airport:Noril'sk Airport (NSK/UOOO)
Destination airport:Moskva-Domodedovo Airport (DME/UUDD)
Confidence Rating: Information verified through data from accident investigation authorities
Narrative:
NordStar flight Y7404, a Boeing 737-800, rolled off the runway surface while taxiing for departure.
There were no personal injuries.
The flight eventually departed at 06:40 UTC (13:40 LT).

Weather reported about the incident time (09:00 LT / 0200Z):
UOOO 100230Z 03007MPS 1000 0700NE R01/P2000N BLSN NSC M42/M45 Q1007 R01/39//36 NOSIG RMK QFE741/0988
UOOO 100200Z 05007MPS 1200 0800NE R01/P2000U BLSN NSC M42/M46 Q1007 R01/39//36 NOSIG RMK QFE741/0988
UOOO 100130Z 05008MPS 1000 R01/P2000D BLSN NSC M42/M46 Q1007 R01/39//36 NOSIG RMK QFE741/0988

(VQ-BQT, illegal reg RA-73252, built 2004)

Sources:

https://en.newizv.ru/news/2023-01-10/in-norilsk-the-plane-rolled-out-of-the-runway-393035
https://zapsib-sut.sledcom.ru/news/item/1756525/

https://www.planespotters.net/airframe/boeing-737-800-ra-73252-nordstar-airlines/38mklr


Images:


Photo: Eastern Interregional Investigation Department for Transport

Revision history:

Date/timeContributorUpdates
10-Jan-2023 10:52 gerard57 Added
10-Jan-2023 17:11 vasilf Updated [Time, Aircraft type, Registration, Cn, Location, Departure airport, Destination airport, Source, Damage, Narrative, Category]
10-Jan-2023 18:10 Iceman 29 Updated [Aircraft type, Registration, Cn, Source, Embed code, Narrative]
10-Jan-2023 18:11 Iceman 29 Updated [Source, Embed code]
10-Jan-2023 19:16 harro Updated [Aircraft type, Cn, Departure airport, Destination airport, Embed code, Photo]
10-Jan-2023 19:19 harro Updated [Operator, Location, Source, Narrative]
10-Jan-2023 20:05 harro Updated [Damage]

Corrections or additions? ... Edit this accident description

The Aviation Safety Network is an exclusive service provided by:
Quick Links:

CONNECT WITH US: FSF Facebook FSF Twitter FSF Youtube FSF LinkedIn FSF Instagram

©2023 Flight Safety Foundation

701 N. Fairfax St., Ste. 250
Alexandria, Virginia 22314
www.FlightSafety.org